Impacts METAR Board
IDs:

KSAN - San Diego Intl Arpt, CA, US

Updated at: 1900 UTC 23 Sep 2018
Potential Impact None Slight Moderate High
Time 23/07Z 23/08Z 23/09Z 23/10Z 23/11Z 23/12Z 23/13Z 23/14Z 23/15Z 23/16Z 23/17Z 23/18Z 23/19Z
Temp69 69 69 69 68 68 69 69 69 70 71 73 74
Dewpt64 64 64 64 64 64 64 64 62 62 62 62 62
Altim29.91 29.91 29.90 29.89 29.88 29.89 29.90 29.91 29.93 29.94 29.95 29.94 29.93
VIS10 10 10 10 10 10 10 10 10 10 10 10 10
CIG-- 10 10 -- -- 10 15 14 15 19 17 17 --
CoverFEWBKNBKNSCTFEWBKNOVCBKNBKNBKNBKNBKNSCT
FltCatVFRMVFRMVFRVFRVFRMVFRMVFRMVFRMVFRMVFRMVFRMVFRVFR
WX--------------------------
WDir3003403036000023023027029000
WSpd4 3 4 4 0 0 0 4 6 7 6 3 6
WGst-- -- -- -- -- -- -- -- -- -- -- -- --
Raw hourly METARs
KSAN 230651Z 30004KT 10SM FEW010 21/18 A2991 RMK AO2 SLP127 T02060178
KSAN 230751Z 34003KT 10SM BKN010 21/18 A2991 RMK AO2 SLP127 T02060178 402560189
KSAN 230851Z 03004KT 10SM BKN010 21/18 A2990 RMK AO2 SLP123 T02060178 58003
KSAN 230951Z 36004KT 10SM SCT010 21/18 A2989 RMK AO2 SLP120 T02060178
KSAN 231051Z 00000KT 10SM FEW010 20/18 A2988 RMK AO2 SLP119 T02000178
KSAN 231151Z 00000KT 10SM BKN010 20/18 A2989 RMK AO2 SLP121 T02000178 10211 20200 55003
KSAN 231258Z 00000KT 10SM OVC015 21/18 A2990 RMK AO2 T02060178
KSAN 231351Z 23004KT 10SM BKN014 21/18 A2991 RMK AO2 SLP128 T02060178
KSAN 231451Z 23006KT 10SM BKN015 21/17 A2993 RMK AO2 SLP136 T02060167 53015
KSAN 231551Z 27007KT 10SM BKN019 21/17 A2994 RMK AO2 SLP138 T02110167
KSAN 231651Z 29006KT 10SM BKN017 22/17 A2995 RMK AO2 SLP140 T02170167
KSAN 231751Z VRB03KT 10SM BKN017 23/17 A2994 RMK AO2 SLP137 T02280167 10233 20200 50001
KSAN 231851Z VRB06KT 10SM FEW015 SCT060 23/17 A2993 RMK AO2 SLP134 T02330167



Page loaded:  19:36 UTC  |   12:36 PM Pacific  |   01:36 PM Mountain  |   02:36 PM Central  |   03:36 PM Eastern

 

ADVISORIES

FORECASTS

FORECASTS

OBSERVATIONS

USER TOOLS

ABOUT US